Stolt Shearwater — ZCRD9 — position and weather

sailwx.info

Track history (hours):
 
Tides and Currents Weather Stations Pressure Air Temp Water Temp Dewpoint Dewpoint Depression Visibility Wind Speed Wind Dir Waves Ship Positions

Stolt Shearwater

Last reported at 2016-Dec-06 14:33 UTC. Time now 2016-Dec-06 19:50 UTC.
Position N 49°20' W 006°22'.

Length 96 m; draft 5 m.

Type: Ship. MMSI: 319402000.

Date/timePositionNaut miles runAvg speedWind from/ knotsBaromVisibWave heightAir tempDewpointWater temp
2016-Dec-06 14:33N 49°20' W 006°22'1612.3
2016-Dec-06 13:15N 49°25' W 005°58'912.4
2016-Dec-06 12:33N 49°27' W 005°46'3511.6
2016-Dec-06 09:33N 49°37' W 004°54'1211.2
2016-Dec-06 08:31N 49°39' W 004°37'3511.7
2016-Dec-06 05:31N 49°50' W 003°45'1212.9
2016-Dec-06 04:33N 49°53' W 003°26'1313.0
2016-Dec-06 03:33N 49°57' W 003°07'1312.7
2016-Dec-06 02:33N 50°00' W 002°48'3310.6
2016-Dec-05 23:28N 50°09' W 001°59'9 9.4
2016-Dec-05 22:34N 50°09' W 001°45'10 9.7
2016-Dec-05 21:33N 50°07' W 001°30'1110.5
2016-Dec-05 20:33N 50°02' W 001°16'1212.0
2016-Dec-05 19:33N 49°54' W 001°02'1312.9
2016-Dec-05 18:33N 49°47' W 000°46'1313.1
2016-Dec-05 17:33N 49°39' W 000°29'1313.4
2016-Dec-05 16:33N 49°32' W 000°11'1212.3
2016-Dec-05 15:33N 49°29' E 000°07'4 3.5
2016-Dec-05 14:31N 49°29' E 000°12'0 0.0
2016-Dec-05 13:31N 49°29' E 000°12'0 0.0
2016-Dec-05 12:31N 49°29' E 000°12'0 0.0
2016-Dec-05 11:31N 49°29' E 000°12'0 0.0
2016-Dec-05 10:31N 49°29' E 000°12'0 0.0
2016-Dec-05 09:31N 49°29' E 000°12'0 0.0
2016-Dec-05 08:31N 49°29' E 000°12'0 0.0
2016-Dec-05 07:31N 49°29' E 000°12'0 0.0
2016-Dec-05 06:31N 49°29' E 000°12'0 0.0
2016-Dec-05 05:31N 49°29' E 000°12'0 0.0
2016-Dec-05 04:31N 49°29' E 000°12'0 0.0
2016-Dec-05 03:31N 49°29' E 000°12'0 0.0
2016-Dec-05 02:31N 49°29' E 000°12'0 0.0
2016-Dec-05 01:31N 49°29' E 000°12'0 0.0
2016-Dec-05 00:31N 49°29' E 000°12'0 0.0
2016-Dec-04 23:31N 49°29' E 000°12'0 0.0
2016-Dec-04 22:31N 49°29' E 000°12'0 0.0
2016-Dec-04 21:31N 49°29' E 000°12'0 0.0
2016-Dec-04 20:31N 49°29' E 000°12'0 0.0
2016-Dec-04 19:31N 49°29' E 000°12'0 0.0
2016-Dec-04 18:31N 49°29' E 000°12'0 0.0
2016-Dec-04 17:31N 49°29' E 000°12'0 0.0
2016-Dec-04 16:31N 49°29' E 000°12'0 0.0
2016-Dec-04 15:31N 49°29' E 000°12'0 0.0
2016-Dec-04 14:31N 49°29' E 000°12'0 0.0
2016-Dec-04 13:31N 49°29' E 000°12'1 1.2
2016-Dec-04 12:33N 49°29' E 000°11'4 3.6
2016-Dec-04 11:33N 49°29' E 000°05'5 4.9
2016-Dec-04 10:32N 49°30' W 000°03'0 0.1
2016-Dec-04 09:32N 49°30' W 000°03'0 0.0
2016-Dec-04 08:32N 49°30' W 000°03'0 0.0
2016-Dec-04 07:32N 49°30' W 000°03'0 0.0
2016-Dec-04 06:32N 49°30' W 000°03'0 0.0
2016-Dec-04 05:32N 49°30' W 000°03'0 0.0
2016-Dec-04 04:32N 49°30' W 000°03'0 0.0
2016-Dec-04 03:32N 49°30' W 000°03'0 0.0
2016-Dec-04 02:32N 49°30' W 000°03'0 0.1
2016-Dec-04 01:32N 49°30' W 000°03'0 0.1
2016-Dec-04 00:32N 49°30' W 000°03'0 0.1
2016-Dec-03 23:32N 49°30' W 000°03'0 0.1
2016-Dec-03 22:32N 49°30' W 000°03'0 0.1
2016-Dec-03 21:32N 49°30' W 000°03'0 0.0
2016-Dec-03 20:32N 49°30' W 000°03'0 0.0
2016-Dec-03 19:32N 49°30' W 000°03'0 0.0
2016-Dec-03 18:32N 49°30' W 000°03'0 0.0
2016-Dec-03 17:32N 49°30' W 000°03'0 0.0
2016-Dec-03 16:32N 49°30' W 000°03'0 0.0
2016-Dec-03 15:32N 49°30' W 000°03'4 4.5
2016-Dec-03 14:33N 49°31' W 000°09'10 9.7
2016-Dec-03 13:33N 49°35' W 000°23'1010.2
2016-Dec-03 12:34N 49°41' W 000°36'1110.9
2016-Dec-03 11:33N 49°46' W 000°51'1211.9
2016-Dec-03 10:33N 49°52' W 001°07'1312.6
2016-Dec-03 09:33N 49°55' W 001°26'1313.5
2016-Dec-03 08:34N 49°55' W 001°47'5410.7
2016-Dec-03 03:27N 49°46' W 003°10'9 9.5
2016-Dec-03 02:33N 49°45' W 003°23'116 8.2
2016-Dec-02 12:26N 50°42' W 006°00'1111.4
2016-Dec-02 11:31N 50°53' W 006°00'180 9.9
2016-Dec-01 17:20N 53°34' W 003°51'912.0
2016-Dec-01 16:33N 53°34' W 003°35'1111.4
2016-Dec-01 15:33N 53°32' W 003°16'1111.0
2016-Dec-01 14:33N 53°25' W 003°01'7 6.8
2016-Dec-01 13:33N 53°19' W 002°57'3 3.3
2016-Dec-01 12:33N 53°17' W 002°52'1 0.6
2016-Dec-01 11:29N 53°17' W 002°51'0 0.0
2016-Dec-01 10:29N 53°17' W 002°51'0 0.0
2016-Dec-01 09:32N 53°17' W 002°51'0 0.0
2016-Dec-01 08:32N 53°17' W 002°51'0 0.0
2016-Dec-01 07:26N 53°17' W 002°51'0 0.0
2016-Dec-01 06:32N 53°17' W 002°51'0 0.0
2016-Dec-01 05:32N 53°17' W 002°51'0 0.0
2016-Dec-01 04:32N 53°17' W 002°51'0 0.0
2016-Dec-01 03:29N 53°17' W 002°51'0 0.0
2016-Dec-01 02:32N 53°17' W 002°51'0 0.0
2016-Dec-01 01:32N 53°17' W 002°51'0 0.0
2016-Dec-01 00:29N 53°17' W 002°51'0 0.0
2016-Nov-30 23:32N 53°17' W 002°51'0 0.0
2016-Nov-30 22:26N 53°17' W 002°51'0 0.0
2016-Nov-30 21:32N 53°17' W 002°51'0 0.0
2016-Nov-30 20:32N 53°17' W 002°51'0 0.0
2016-Nov-30 19:32N 53°17' W 002°51'0 0.0
2016-Nov-30 18:29N 53°17' W 002°51'0 0.0
2016-Nov-30 17:32N 53°17' W 002°51'0 0.0
2016-Nov-30 16:32N 53°17' W 002°51'0 0.0
2016-Nov-30 15:32N 53°17' W 002°51'0 0.0
2016-Nov-30 14:29N 53°17' W 002°51'0 0.3
2016-Nov-30 13:33N 53°17' W 002°51'4 3.9
2016-Nov-30 12:34N 53°19' W 002°57'2 2.4
2016-Nov-30 11:33N 53°22' W 002°58'3 3.2
2016-Nov-30 10:33N 53°24' W 003°01'0 0.0
2016-Nov-30 09:33N 53°24' W 003°01'0 0.0
2016-Nov-30 08:33N 53°24' W 003°01'1 1.1
2016-Nov-30 07:33N 53°24' W 003°03'0 0.0
2016-Nov-30 06:32N 53°24' W 003°03'0 0.0
2016-Nov-30 05:26N 53°24' W 003°03'0 0.0
2016-Nov-30 04:32N 53°24' W 003°03'0 0.0
2016-Nov-30 03:32N 53°24' W 003°03'0 0.0
2016-Nov-30 02:32N 53°24' W 003°03'0 0.0
2016-Nov-30 01:32N 53°24' W 003°03'0 0.0
2016-Nov-30 00:32N 53°24' W 003°03'0 0.0
2016-Nov-29 23:32N 53°24' W 003°03'0 0.0
2016-Nov-29 22:29N 53°24' W 003°03'0 0.0
2016-Nov-29 21:29N 53°24' W 003°03'0 0.0
2016-Nov-29 20:26N 53°24' W 003°03'0 0.0
2016-Nov-29 19:32N 53°24' W 003°03'0 0.1
2016-Nov-29 18:32N 53°25' W 003°03'0 0.0
2016-Nov-29 17:32N 53°25' W 003°03'0 0.0
2016-Nov-29 16:32N 53°25' W 003°03'0 0.0
2016-Nov-29 15:32N 53°25' W 003°03'0 0.0
2016-Nov-29 14:32N 53°25' W 003°03'0 0.0
2016-Nov-29 13:32N 53°25' W 003°03'0 0.0
2016-Nov-29 12:32N 53°25' W 003°03'0 0.0
2016-Nov-29 11:32N 53°25' W 003°03'0 0.0
2016-Nov-29 10:23N 53°25' W 003°03'0 0.0
2016-Nov-29 09:32N 53°25' W 003°03'0 0.0
2016-Nov-29 08:32N 53°25' W 003°03'0 0.0
2016-Nov-29 07:32N 53°25' W 003°03'0 0.0
2016-Nov-29 06:32N 53°25' W 003°03'0 0.0
2016-Nov-29 05:32N 53°25' W 003°03'0 0.0
2016-Nov-29 04:32N 53°25' W 003°03'0 0.0
2016-Nov-29 03:32N 53°25' W 003°03'0 0.0
2016-Nov-29 02:32N 53°25' W 003°03'0 0.0
2016-Nov-29 01:32N 53°25' W 003°03'0 0.5
2016-Nov-29 00:33N 53°24' W 003°03'1 0.8
2016-Nov-28 23:33N 53°24' W 003°01'0 0.1
2016-Nov-28 22:33N 53°24' W 003°01'1 1.4
2016-Nov-28 21:33N 53°26' W 003°01'10 9.7
2016-Nov-28 20:33N 53°31' W 003°15'1211.6
2016-Nov-28 19:33N 53°31' W 003°34'1313.1
2016-Nov-28 18:32N 53°30' W 003°57'18110.6
2016-Nov-28 01:22N 50°44' W 005°52'1011.6
2016-Nov-28 00:32N 50°34' W 005°52'1111.6
2016-Nov-27 23:33N 50°23' W 005°53'2711.3
2016-Nov-27 21:10N 49°55' W 005°52'1212.4
2016-Nov-27 20:14N 49°53' W 005°35'2612.2
2016-Nov-27 18:07N 49°53' W 004°54'711.6
2016-Nov-27 17:32N 49°53' W 004°44'1111.4
2016-Nov-27 16:33N 49°53' W 004°27'1411.3
2016-Nov-27 15:22N 49°54' W 004°06'911.5
2016-Nov-27 14:34N 49°56' W 003°52'1212.1
2016-Nov-27 13:33N 49°56' W 003°33'1312.9
2016-Nov-27 12:33N 49°57' W 003°13'1413.6
2016-Nov-27 11:32N 49°60' W 002°52'4012.4
2016-Nov-27 08:18N 50°13' W 001°53'38 9.3
2016-Nov-27 04:16N 50°29' W 000°59'811.4
2016-Nov-27 03:34N 50°37' W 000°58'9 9.4
2016-Nov-27 02:34N 50°45' W 001°06'9 9.4
2016-Nov-27 01:34N 50°50' W 001°19'  
Track history (hours):
 
Tides and Currents Weather Stations Pressure Air Temp Water Temp Dewpoint Dewpoint Depression Visibility Wind Speed Wind Dir Waves Ship Positions

Stolt Shearwater

Last reported at 2016-Dec-06 14:33 UTC. Time now 2016-Dec-06 19:50 UTC.
Position N 49°20' W 006°22'.

Length 96 m; draft 5 m.

Type: Ship. MMSI: 319402000.

Date/timePositionNaut miles runAvg speedWind from/ knotsBaromVisibWave heightAir tempDewpointWater temp
2016-Dec-06 14:33N 49°20' W 006°22'1612.3
2016-Dec-06 13:15N 49°25' W 005°58'912.4
2016-Dec-06 12:33N 49°27' W 005°46'3511.6
2016-Dec-06 09:33N 49°37' W 004°54'1211.2
2016-Dec-06 08:31N 49°39' W 004°37'3511.7
2016-Dec-06 05:31N 49°50' W 003°45'1212.9
2016-Dec-06 04:33N 49°53' W 003°26'1313.0
2016-Dec-06 03:33N 49°57' W 003°07'1312.7
2016-Dec-06 02:33N 50°00' W 002°48'3310.6
2016-Dec-05 23:28N 50°09' W 001°59'9 9.4
2016-Dec-05 22:34N 50°09' W 001°45'10 9.7
2016-Dec-05 21:33N 50°07' W 001°30'1110.5
2016-Dec-05 20:33N 50°02' W 001°16'1212.0
2016-Dec-05 19:33N 49°54' W 001°02'1312.9
2016-Dec-05 18:33N 49°47' W 000°46'1313.1
2016-Dec-05 17:33N 49°39' W 000°29'1313.4
2016-Dec-05 16:33N 49°32' W 000°11'1212.3
2016-Dec-05 15:33N 49°29' E 000°07'4 3.5
2016-Dec-05 14:31N 49°29' E 000°12'0 0.0
2016-Dec-05 13:31N 49°29' E 000°12'0 0.0
2016-Dec-05 12:31N 49°29' E 000°12'0 0.0
2016-Dec-05 11:31N 49°29' E 000°12'0 0.0
2016-Dec-05 10:31N 49°29' E 000°12'0 0.0
2016-Dec-05 09:31N 49°29' E 000°12'0 0.0
2016-Dec-05 08:31N 49°29' E 000°12'0 0.0
2016-Dec-05 07:31N 49°29' E 000°12'0 0.0
2016-Dec-05 06:31N 49°29' E 000°12'0 0.0
2016-Dec-05 05:31N 49°29' E 000°12'0 0.0
2016-Dec-05 04:31N 49°29' E 000°12'0 0.0
2016-Dec-05 03:31N 49°29' E 000°12'0 0.0
2016-Dec-05 02:31N 49°29' E 000°12'0 0.0
2016-Dec-05 01:31N 49°29' E 000°12'0 0.0
2016-Dec-05 00:31N 49°29' E 000°12'0 0.0
2016-Dec-04 23:31N 49°29' E 000°12'0 0.0
2016-Dec-04 22:31N 49°29' E 000°12'0 0.0
2016-Dec-04 21:31N 49°29' E 000°12'0 0.0
2016-Dec-04 20:31N 49°29' E 000°12'0 0.0
2016-Dec-04 19:31N 49°29' E 000°12'0 0.0
2016-Dec-04 18:31N 49°29' E 000°12'0 0.0
2016-Dec-04 17:31N 49°29' E 000°12'0 0.0
2016-Dec-04 16:31N 49°29' E 000°12'0 0.0
2016-Dec-04 15:31N 49°29' E 000°12'0 0.0
2016-Dec-04 14:31N 49°29' E 000°12'0 0.0
2016-Dec-04 13:31N 49°29' E 000°12'1 1.2
2016-Dec-04 12:33N 49°29' E 000°11'4 3.6
2016-Dec-04 11:33N 49°29' E 000°05'5 4.9
2016-Dec-04 10:32N 49°30' W 000°03'0 0.1
2016-Dec-04 09:32N 49°30' W 000°03'0 0.0
2016-Dec-04 08:32N 49°30' W 000°03'0 0.0
2016-Dec-04 07:32N 49°30' W 000°03'0 0.0
2016-Dec-04 06:32N 49°30' W 000°03'0 0.0
2016-Dec-04 05:32N 49°30' W 000°03'0 0.0
2016-Dec-04 04:32N 49°30' W 000°03'0 0.0
2016-Dec-04 03:32N 49°30' W 000°03'0 0.0
2016-Dec-04 02:32N 49°30' W 000°03'0 0.1
2016-Dec-04 01:32N 49°30' W 000°03'0 0.1
2016-Dec-04 00:32N 49°30' W 000°03'0 0.1
2016-Dec-03 23:32N 49°30' W 000°03'0 0.1
2016-Dec-03 22:32N 49°30' W 000°03'0 0.1
2016-Dec-03 21:32N 49°30' W 000°03'0 0.0
2016-Dec-03 20:32N 49°30' W 000°03'0 0.0
2016-Dec-03 19:32N 49°30' W 000°03'0 0.0
2016-Dec-03 18:32N 49°30' W 000°03'0 0.0
2016-Dec-03 17:32N 49°30' W 000°03'0 0.0
2016-Dec-03 16:32N 49°30' W 000°03'0 0.0
2016-Dec-03 15:32N 49°30' W 000°03'4 4.5
2016-Dec-03 14:33N 49°31' W 000°09'10 9.7
2016-Dec-03 13:33N 49°35' W 000°23'1010.2
2016-Dec-03 12:34N 49°41' W 000°36'1110.9
2016-Dec-03 11:33N 49°46' W 000°51'1211.9
2016-Dec-03 10:33N 49°52' W 001°07'1312.6
2016-Dec-03 09:33N 49°55' W 001°26'1313.5
2016-Dec-03 08:34N 49°55' W 001°47'5410.7
2016-Dec-03 03:27N 49°46' W 003°10'9 9.5
2016-Dec-03 02:33N 49°45' W 003°23'116 8.2
2016-Dec-02 12:26N 50°42' W 006°00'1111.4
2016-Dec-02 11:31N 50°53' W 006°00'180 9.9
2016-Dec-01 17:20N 53°34' W 003°51'912.0
2016-Dec-01 16:33N 53°34' W 003°35'1111.4
2016-Dec-01 15:33N 53°32' W 003°16'1111.0
2016-Dec-01 14:33N 53°25' W 003°01'7 6.8
2016-Dec-01 13:33N 53°19' W 002°57'3 3.3
2016-Dec-01 12:33N 53°17' W 002°52'1 0.6
2016-Dec-01 11:29N 53°17' W 002°51'0 0.0
2016-Dec-01 10:29N 53°17' W 002°51'0 0.0
2016-Dec-01 09:32N 53°17' W 002°51'0 0.0
2016-Dec-01 08:32N 53°17' W 002°51'0 0.0
2016-Dec-01 07:26N 53°17' W 002°51'0 0.0
2016-Dec-01 06:32N 53°17' W 002°51'0 0.0
2016-Dec-01 05:32N 53°17' W 002°51'0 0.0
2016-Dec-01 04:32N 53°17' W 002°51'0 0.0
2016-Dec-01 03:29N 53°17' W 002°51'0 0.0
2016-Dec-01 02:32N 53°17' W 002°51'0 0.0
2016-Dec-01 01:32N 53°17' W 002°51'0 0.0
2016-Dec-01 00:29N 53°17' W 002°51'0 0.0
2016-Nov-30 23:32N 53°17' W 002°51'0 0.0
2016-Nov-30 22:26N 53°17' W 002°51'0 0.0
2016-Nov-30 21:32N 53°17' W 002°51'0 0.0
2016-Nov-30 20:32N 53°17' W 002°51'0 0.0
2016-Nov-30 19:32N 53°17' W 002°51'0 0.0
2016-Nov-30 18:29N 53°17' W 002°51'0 0.0
2016-Nov-30 17:32N 53°17' W 002°51'0 0.0
2016-Nov-30 16:32N 53°17' W 002°51'0 0.0
2016-Nov-30 15:32N 53°17' W 002°51'0 0.0
2016-Nov-30 14:29N 53°17' W 002°51'0 0.3
2016-Nov-30 13:33N 53°17' W 002°51'4 3.9
2016-Nov-30 12:34N 53°19' W 002°57'2 2.4
2016-Nov-30 11:33N 53°22' W 002°58'3 3.2
2016-Nov-30 10:33N 53°24' W 003°01'0 0.0
2016-Nov-30 09:33N 53°24' W 003°01'0 0.0
2016-Nov-30 08:33N 53°24' W 003°01'1 1.1
2016-Nov-30 07:33N 53°24' W 003°03'0 0.0
2016-Nov-30 06:32N 53°24' W 003°03'0 0.0
2016-Nov-30 05:26N 53°24' W 003°03'0 0.0
2016-Nov-30 04:32N 53°24' W 003°03'0 0.0
2016-Nov-30 03:32N 53°24' W 003°03'0 0.0
2016-Nov-30 02:32N 53°24' W 003°03'0 0.0
2016-Nov-30 01:32N 53°24' W 003°03'0 0.0
2016-Nov-30 00:32N 53°24' W 003°03'0 0.0
2016-Nov-29 23:32N 53°24' W 003°03'0 0.0
2016-Nov-29 22:29N 53°24' W 003°03'0 0.0
2016-Nov-29 21:29N 53°24' W 003°03'0 0.0
2016-Nov-29 20:26N 53°24' W 003°03'0 0.0
2016-Nov-29 19:32N 53°24' W 003°03'0 0.1
2016-Nov-29 18:32N 53°25' W 003°03'0 0.0
2016-Nov-29 17:32N 53°25' W 003°03'0 0.0
2016-Nov-29 16:32N 53°25' W 003°03'0 0.0
2016-Nov-29 15:32N 53°25' W 003°03'0 0.0
2016-Nov-29 14:32N 53°25' W 003°03'0 0.0
2016-Nov-29 13:32N 53°25' W 003°03'0 0.0
2016-Nov-29 12:32N 53°25' W 003°03'0 0.0
2016-Nov-29 11:32N 53°25' W 003°03'0 0.0
2016-Nov-29 10:23N 53°25' W 003°03'0 0.0
2016-Nov-29 09:32N 53°25' W 003°03'0 0.0
2016-Nov-29 08:32N 53°25' W 003°03'0 0.0
2016-Nov-29 07:32N 53°25' W 003°03'0 0.0
2016-Nov-29 06:32N 53°25' W 003°03'0 0.0
2016-Nov-29 05:32N 53°25' W 003°03'0 0.0
2016-Nov-29 04:32N 53°25' W 003°03'0 0.0
2016-Nov-29 03:32N 53°25' W 003°03'0 0.0
2016-Nov-29 02:32N 53°25' W 003°03'0 0.0
2016-Nov-29 01:32N 53°25' W 003°03'0 0.5
2016-Nov-29 00:33N 53°24' W 003°03'1 0.8
2016-Nov-28 23:33N 53°24' W 003°01'0 0.1
2016-Nov-28 22:33N 53°24' W 003°01'1 1.4
2016-Nov-28 21:33N 53°26' W 003°01'10 9.7
2016-Nov-28 20:33N 53°31' W 003°15'1211.6
2016-Nov-28 19:33N 53°31' W 003°34'1313.1
2016-Nov-28 18:32N 53°30' W 003°57'18110.6
2016-Nov-28 01:22N 50°44' W 005°52'1011.6
2016-Nov-28 00:32N 50°34' W 005°52'1111.6
2016-Nov-27 23:33N 50°23' W 005°53'2711.3
2016-Nov-27 21:10N 49°55' W 005°52'1212.4
2016-Nov-27 20:14N 49°53' W 005°35'2612.2
2016-Nov-27 18:07N 49°53' W 004°54'711.6
2016-Nov-27 17:32N 49°53' W 004°44'1111.4
2016-Nov-27 16:33N 49°53' W 004°27'1411.3
2016-Nov-27 15:22N 49°54' W 004°06'911.5
2016-Nov-27 14:34N 49°56' W 003°52'1212.1
2016-Nov-27 13:33N 49°56' W 003°33'1312.9
2016-Nov-27 12:33N 49°57' W 003°13'1413.6
2016-Nov-27 11:32N 49°60' W 002°52'4012.4
2016-Nov-27 08:18N 50°13' W 001°53'38 9.3
2016-Nov-27 04:16N 50°29' W 000°59'811.4
2016-Nov-27 03:34N 50°37' W 000°58'9 9.4
2016-Nov-27 02:34N 50°45' W 001°06'9 9.4
2016-Nov-27 01:34N 50°50' W 001°19'  

Dump ship's entire track history